Time;durP1;ratioP1;P1;durP2;ratioP2;P2;SDS_P1;SDS_P2;PMS_P1;PMS_P2;Temp;Humidity;BMP_temperature;BMP_pressure;BME280_temperature;BME280_humidity;BME280_pressure;Samples;Min_cycle;Max_cycle;Signal;HPM_P1;HPM_P2
2021/11/26 00:01:36;;;;;;;27.87;13.23;;;5.70;68.60;;;;;;2313047;54;21051;-68
2021/11/26 00:04:02;;;;;;;28.20;13.20;;;5.70;68.60;;;;;;2304807;54;21825;-70
2021/11/26 00:06:31;;;;;;;30.25;12.93;;;5.70;68.60;;;;;;2313774;54;20968;-68
2021/11/26 00:08:59;;;;;;;29.02;12.55;;;5.70;68.50;;;;;;2326667;54;21051;-68
2021/11/26 00:11:26;;;;;;;28.25;11.93;;;5.70;68.50;;;;;;2548134;53;20956;-69
2021/11/26 00:19:50;;;;;;;20.62;9.23;;;5.70;68.50;;;;;;2319396;54;21450;-69
2021/11/26 00:22:19;;;;;;;19.70;9.77;;;5.70;68.40;;;;;;2531760;53;21491;-69
2021/11/26 00:24:45;;;;;;;26.42;11.80;;;5.70;68.30;;;;;;2314361;54;21008;-70
2021/11/26 00:27:12;;;;;;;22.08;10.32;;;5.70;68.40;;;;;;2304954;54;21046;-69
2021/11/26 00:29:39;;;;;;;22.75;10.73;;;5.70;68.30;;;;;;2325924;54;20976;-69
2021/11/26 00:32:06;;;;;;;26.85;11.48;;;5.60;68.20;;;;;;2327856;54;20997;-70
2021/11/26 00:34:35;;;;;;;25.83;10.90;;;5.60;68.20;;;;;;2534566;54;21069;-70
2021/11/26 00:37:01;;;;;;;22.58;10.52;;;5.60;68.10;;;;;;2316100;54;21023;-67
2021/11/26 00:39:27;;;;;;;24.98;11.77;;;5.60;68.10;;;;;;2307016;54;21091;-68
2021/11/26 00:41:54;;;;;;;22.98;10.57;;;5.60;68.10;;;;;;2311844;54;20939;-68
2021/11/26 00:44:20;;;;;;;22.62;11.38;;;5.60;67.90;;;;;;2310019;54;21070;-69
2021/11/26 00:46:46;;;;;;;22.98;10.82;;;5.50;67.70;;;;;;2315058;54;20981;-70
2021/11/26 00:49:13;;;;;;;23.38;11.27;;;5.50;67.60;;;;;;2542725;53;21531;-68
2021/11/26 00:51:39;;;;;;;26.58;12.90;;;5.50;67.60;;;;;;2316666;54;20943;-70
2021/11/26 00:54:06;;;;;;;23.95;11.30;;;5.40;67.50;;;;;;2324423;54;21051;-68
2021/11/26 00:56:34;;;;;;;22.73;10.70;;;5.40;67.60;;;;;;2317716;54;20973;-67
2021/11/26 00:59:03;;;;;;;26.12;11.52;;;5.40;67.70;;;;;;2321774;54;21075;-69
2021/11/26 01:01:29;;;;;;;26.42;12.10;;;5.40;67.70;;;;;;2531224;54;21570;-68
2021/11/26 01:03:55;;;;;;;30.15;12.80;;;5.30;67.80;;;;;;2306962;54;21054;-70
2021/11/26 01:06:21;;;;;;;24.42;11.82;;;5.30;67.90;;;;;;2319441;54;20919;-70
2021/11/26 01:08:50;;;;;;;23.85;11.45;;;5.30;68.00;;;;;;2308673;54;20979;-70
2021/11/26 01:11:19;;;;;;;26.95;12.57;;;5.30;68.00;;;;;;2516170;54;21001;-69
2021/11/26 01:13:45;;;;;;;29.60;12.75;;;5.40;68.20;;;;;;2321957;54;20965;-68
2021/11/26 01:16:13;;;;;;;24.08;11.07;;;5.30;68.20;;;;;;2325408;54;20986;-69
2021/11/26 01:18:39;;;;;;;25.75;11.73;;;5.30;68.30;;;;;;2313590;54;20951;-69
2021/11/26 01:21:07;;;;;;;19.10;9.52;;;5.30;68.40;;;;;;2305937;54;20974;-68
2021/11/26 01:23:34;;;;;;;21.45;9.90;;;5.30;68.40;;;;;;2537782;53;21042;-69
2021/11/26 01:26:03;;;;;;;23.77;10.77;;;5.30;68.40;;;;;;2306875;54;20987;-69
2021/11/26 01:28:29;;;;;;;29.30;12.15;;;5.30;68.50;;;;;;2318620;54;20925;-68
2021/11/26 01:30:55;;;;;;;27.70;12.23;;;5.30;68.50;;;;;;2322864;54;21050;-68
2021/11/26 01:33:22;;;;;;;27.40;12.65;;;5.30;68.40;;;;;;2333224;54;20964;-70
2021/11/26 01:35:53;;;;;;;21.42;10.90;;;5.30;68.40;;;;;;2319072;54;20981;-68
2021/11/26 01:38:19;;;;;;;21.30;9.52;;;5.30;68.40;;;;;;2323001;54;21039;-69
2021/11/26 01:40:46;;;;;;;23.90;10.85;;;5.30;68.30;;;;;;2540683;53;20928;-69
2021/11/26 01:43:14;;;;;;;22.13;9.75;;;5.30;68.30;;;;;;2296270;54;21060;-69
2021/11/26 01:45:50;;;;;;;23.98;11.35;;;5.30;68.20;;;;;;2313358;54;21104;-68
2021/11/26 01:48:17;;;;;;;25.83;11.15;;;5.30;68.10;;;;;;2319289;54;20937;-68
2021/11/26 01:50:53;;;;;;;25.48;11.60;;;5.20;68.00;;;;;;2300169;54;21011;-69
2021/11/26 01:53:22;;;;;;;21.33;9.50;;;5.20;67.90;;;;;;2320227;54;21517;-68
2021/11/26 01:55:53;;;;;;;28.85;12.73;;;5.20;68.00;;;;;;2307818;54;21033;-69
2021/11/26 01:58:19;;;;;;;19.80;9.82;;;5.20;68.10;;;;;;2315498;54;20977;-69
2021/11/26 02:00:46;;;;;;;25.88;11.85;;;5.20;68.20;;;;;;2311850;54;21811;-70
2021/11/26 02:03:12;;;;;;;24.23;11.38;;;5.20;68.30;;;;;;2542959;53;21007;-69
2021/11/26 02:05:57;;;;;;;22.10;10.23;;;5.20;68.30;;;;;;2314038;54;20985;-68
2021/11/26 02:08:23;;;;;;;24.83;10.80;;;5.20;68.10;;;;;;2323053;54;20961;-68
2021/11/26 02:11:15;;;;;;;26.45;11.68;;;5.20;68.30;;;;;;2317709;54;21033;-68
2021/11/26 02:17:13;;;;;;;26.10;11.27;;;5.10;67.90;;;;;;2577715;53;20967;-69
2021/11/26 02:23:20;;;;;;;27.02;11.38;;;5.10;68.10;;;;;;2579426;53;21094;-68
2021/11/26 02:25:49;;;;;;;23.42;11.45;;;5.10;68.30;;;;;;2553231;53;20949;-68
2021/11/26 02:28:16;;;;;;;26.25;11.52;;;5.10;68.30;;;;;;2328951;54;21703;-68
2021/11/26 02:31:01;;;;;;;28.95;12.27;;;5.10;68.40;;;;;;2309509;55;21019;-69
2021/11/26 02:33:48;;;;;;;25.48;11.43;;;5.10;68.20;;;;;;2316910;54;21100;-68
2021/11/26 02:36:29;;;;;;;23.62;11.00;;;5.10;68.20;;;;;;2311825;54;20983;-69
2021/11/26 02:38:57;;;;;;;24.50;10.93;;;5.10;68.30;;;;;;2561069;53;21018;-68
2021/11/26 02:41:23;;;;;;;28.67;12.05;;;5.10;68.50;;;;;;2320650;54;20999;-69
2021/11/26 02:44:10;;;;;;;27.25;11.98;;;5.10;68.50;;;;;;2310184;54;21011;-69
2021/11/26 02:46:37;;;;;;;24.45;10.60;;;5.10;68.50;;;;;;2314060;54;20970;-69
2021/11/26 02:49:05;;;;;;;25.37;11.40;;;5.10;69.40;;;;;;2320634;54;21720;-69
2021/11/26 02:51:31;;;;;;;27.13;11.85;;;5.10;68.70;;;;;;2311532;54;20955;-69
2021/11/26 02:53:58;;;;;;;30.37;13.57;;;5.10;68.70;;;;;;2314592;54;21085;-69
2021/11/26 02:56:26;;;;;;;28.48;13.32;;;5.20;68.80;;;;;;2322871;54;21103;-68
2021/11/26 02:58:54;;;;;;;30.42;13.62;;;5.20;68.80;;;;;;2320914;54;21002;-68
2021/11/26 03:01:20;;;;;;;31.48;13.80;;;5.20;68.80;;;;;;2332708;54;21738;-69
2021/11/26 03:03:47;;;;;;;29.30;13.55;;;5.20;68.80;;;;;;2317978;54;20968;-68
2021/11/26 03:06:13;;;;;;;29.48;13.15;;;5.20;68.80;;;;;;2548450;53;21008;-68
2021/11/26 03:08:39;;;;;;;30.92;14.05;;;5.20;68.80;;;;;;2547725;53;20986;-69
2021/11/26 03:11:05;;;;;;;28.67;12.40;;;5.20;68.90;;;;;;2316155;54;20989;-69
2021/11/26 03:13:32;;;;;;;28.30;13.68;;;5.20;68.90;;;;;;2547490;53;20985;-68
2021/11/26 03:15:58;;;;;;;28.90;13.05;;;5.30;69.00;;;;;;2312762;54;20991;-69
2021/11/26 03:18:27;;;;;;;28.17;13.23;;;5.30;69.00;;;;;;2313709;54;21014;-68
2021/11/26 03:20:54;;;;;;;28.20;13.35;;;5.30;69.00;;;;;;2530369;54;20952;-69
2021/11/26 03:23:24;;;;;;;27.30;12.95;;;5.30;68.90;;;;;;2328104;54;21019;-69
2021/11/26 03:25:53;;;;;;;27.70;12.90;;;5.30;68.90;;;;;;2317190;54;20957;-69
2021/11/26 03:28:22;;;;;;;29.55;13.60;;;5.30;68.80;;;;;;2311913;54;21018;-69
2021/11/26 03:30:48;;;;;;;27.52;12.30;;;5.40;68.90;;;;;;2306556;54;20896;-69
2021/11/26 03:33:15;;;;;;;27.10;12.85;;;5.40;68.90;;;;;;2319225;54;20929;-68
2021/11/26 03:35:45;;;;;;;26.02;12.37;;;5.40;68.80;;;;;;2315749;54;20985;-69
2021/11/26 03:38:11;;;;;;;26.55;12.05;;;5.40;68.80;;;;;;2313350;54;20964;-69
2021/11/26 03:40:40;;;;;;;22.77;11.02;;;5.40;68.80;;;;;;2291782;55;20918;-70
2021/11/26 03:43:06;;;;;;;29.98;12.55;;;5.40;68.80;;;;;;2526173;54;20980;-69
2021/11/26 03:45:33;;;;;;;29.02;13.55;;;5.40;68.90;;;;;;2306648;54;20963;-68
2021/11/26 03:47:59;;;;;;;29.80;14.10;;;5.40;68.90;;;;;;2316379;54;20970;-69
2021/11/26 03:50:27;;;;;;;29.70;13.23;;;5.40;68.80;;;;;;2308785;54;20947;-68
2021/11/26 03:53:18;;;;;;;24.80;11.95;;;5.40;68.70;;;;;;2579537;53;21029;-68
2021/11/26 03:55:45;;;;;;;26.55;12.32;;;5.40;68.70;;;;;;2333136;54;20997;-69
2021/11/26 03:58:11;;;;;;;25.70;11.77;;;5.40;68.70;;;;;;2589193;53;21049;-69
2021/11/26 04:00:42;;;;;;;27.20;12.15;;;5.40;68.70;;;;;;2340842;57;21155;-68
2021/11/26 04:03:08;;;;;;;27.70;12.65;;;5.40;68.70;;;;;;2322331;54;20927;-69
2021/11/26 04:05:40;;;;;;;26.60;12.55;;;5.50;68.80;;;;;;2545244;53;21999;-68
2021/11/26 04:08:06;;;;;;;26.70;12.05;;;5.50;68.70;;;;;;2314225;54;21031;-68
2021/11/26 04:10:33;;;;;;;29.05;13.38;;;5.40;68.60;;;;;;2313845;54;20924;-69
2021/11/26 04:13:00;;;;;;;30.08;13.88;;;5.50;68.80;;;;;;2301351;54;21772;-69
2021/11/26 04:15:26;;;;;;;27.67;12.82;;;5.50;68.80;;;;;;2524494;54;21484;-69
2021/11/26 04:17:57;;;;;;;33.92;14.80;;;5.50;68.80;;;;;;2548269;54;21546;-69
2021/11/26 04:20:23;;;;;;;30.33;13.62;;;5.50;68.70;;;;;;2342044;57;21044;-69
2021/11/26 04:22:51;;;;;;;25.37;12.10;;;5.50;68.70;;;;;;2330750;54;21044;-68
2021/11/26 04:25:18;;;;;;;27.30;13.38;;;5.50;68.70;;;;;;2557277;53;20974;-69
2021/11/26 04:27:47;;;;;;;29.02;13.82;;;5.50;68.60;;;;;;2319952;54;21019;-69
2021/11/26 04:30:18;;;;;;;27.50;13.23;;;5.50;68.60;;;;;;2315058;54;21066;-68
2021/11/26 04:32:46;;;;;;;30.35;14.13;;;5.50;68.60;;;;;;2303763;54;21005;-69
2021/11/26 04:35:13;;;;;;;28.05;13.18;;;5.50;68.60;;;;;;2319276;54;20914;-69
2021/11/26 04:37:42;;;;;;;30.08;13.43;;;5.50;68.50;;;;;;2317416;54;20972;-68
2021/11/26 04:40:11;;;;;;;28.52;14.15;;;5.50;68.60;;;;;;2316676;54;20949;-68
2021/11/26 04:42:37;;;;;;;27.52;12.88;;;5.50;68.50;;;;;;2560765;53;21072;-69
2021/11/26 04:45:05;;;;;;;28.27;13.10;;;5.50;68.60;;;;;;2588624;53;21645;-69
2021/11/26 04:47:31;;;;;;;27.27;12.65;;;5.50;68.60;;;;;;2341107;57;21653;-69
2021/11/26 04:50:00;;;;;;;27.00;13.10;;;5.50;68.60;;;;;;2588166;53;21124;-68
2021/11/26 04:52:27;;;;;;;27.52;13.02;;;5.50;68.60;;;;;;2340759;57;21049;-68
2021/11/26 04:54:55;;;;;;;25.50;12.98;;;5.50;68.60;;;;;;2340002;57;21116;-69
2021/11/26 04:57:22;;;;;;;26.60;12.32;;;5.50;68.60;;;;;;2317214;55;20946;-70
2021/11/26 04:59:48;;;;;;;28.33;12.30;;;5.50;68.60;;;;;;2544933;53;20981;-68
2021/11/26 05:02:14;;;;;;;27.77;13.20;;;5.50;68.60;;;;;;2303627;54;20979;-69
2021/11/26 05:04:41;;;;;;;26.52;12.70;;;5.50;68.50;;;;;;2547414;53;21048;-68
2021/11/26 05:07:08;;;;;;;23.50;10.95;;;5.50;68.50;;;;;;2311556;54;21001;-69
2021/11/26 05:09:35;;;;;;;26.60;12.35;;;5.40;68.50;;;;;;2342135;57;21108;-69
2021/11/26 05:12:03;;;;;;;26.20;11.85;;;5.50;69.40;;;;;;2341947;57;21948;-69
2021/11/26 05:14:31;;;;;;;28.75;13.35;;;5.50;68.70;;;;;;2312490;54;21034;-68
2021/11/26 05:17:01;;;;;;;23.45;11.57;;;5.50;68.70;;;;;;2320811;54;20945;-68
2021/11/26 05:19:46;;;;;;;23.98;11.40;;;5.50;68.70;;;;;;2323728;54;20962;-69
2021/11/26 05:22:15;;;;;;;23.40;11.23;;;5.50;68.70;;;;;;2563768;53;21025;-68
2021/11/26 05:24:42;;;;;;;29.00;12.50;;;5.50;68.80;;;;;;2339735;54;20909;-68
2021/11/26 05:27:08;;;;;;;27.30;13.70;;;5.50;68.80;;;;;;2342402;57;21103;-69
2021/11/26 05:29:36;;;;;;;25.52;12.88;;;5.50;68.70;;;;;;2341456;57;21100;-69
2021/11/26 05:32:02;;;;;;;27.33;13.90;;;5.50;68.60;;;;;;2341677;57;21144;-68
2021/11/26 05:34:29;;;;;;;25.60;12.57;;;5.50;68.50;;;;;;2319676;56;21826;-68
2021/11/26 05:36:59;;;;;;;25.45;12.60;;;5.50;68.50;;;;;;2323100;54;21829;-69
2021/11/26 05:39:27;;;;;;;20.67;10.45;;;5.50;68.50;;;;;;2323543;54;21040;-70
2021/11/26 05:41:53;;;;;;;25.77;12.20;;;5.50;68.60;;;;;;2338224;57;21061;-68
2021/11/26 05:44:19;;;;;;;26.15;12.20;;;5.50;68.70;;;;;;2587801;53;21053;-68
2021/11/26 05:46:46;;;;;;;27.40;12.43;;;5.50;68.70;;;;;;2341206;57;21159;-69
2021/11/26 05:49:13;;;;;;;25.98;12.43;;;5.50;68.70;;;;;;2323116;54;21144;-68
2021/11/26 05:51:39;;;;;;;27.92;12.57;;;5.50;68.60;;;;;;2317621;54;21009;-68
2021/11/26 05:54:06;;;;;;;26.15;12.30;;;5.50;68.60;;;;;;2324575;57;21114;-69
2021/11/26 05:56:35;;;;;;;23.95;11.60;;;5.50;68.60;;;;;;2330438;54;20929;-69
2021/11/26 05:59:01;;;;;;;24.85;11.57;;;5.50;68.50;;;;;;2317074;54;20986;-68
2021/11/26 06:01:28;;;;;;;22.37;10.82;;;5.50;68.70;;;;;;2317751;54;21169;-68
2021/11/26 06:03:57;;;;;;;23.42;11.23;;;5.60;68.80;;;;;;2586138;53;21053;-69
2021/11/26 06:06:24;;;;;;;22.40;11.18;;;5.60;68.90;;;;;;2316922;54;21023;-69
2021/11/26 06:08:51;;;;;;;21.20;10.48;;;5.60;68.90;;;;;;2545299;53;21001;-68
2021/11/26 06:11:17;;;;;;;23.25;11.15;;;5.60;68.90;;;;;;2320538;54;20954;-70
2021/11/26 06:13:46;;;;;;;20.95;10.50;;;5.60;68.80;;;;;;2312124;54;20982;-69
2021/11/26 06:16:13;;;;;;;22.92;10.85;;;5.60;68.80;;;;;;2312381;54;20954;-69
2021/11/26 06:18:40;;;;;;;23.52;10.70;;;5.60;68.90;;;;;;2305378;54;20974;-68
2021/11/26 06:21:06;;;;;;;25.37;11.60;;;5.60;68.90;;;;;;2306473;54;20922;-69
2021/11/26 06:23:33;;;;;;;22.92;11.48;;;5.60;68.80;;;;;;2318487;54;21030;-69
2021/11/26 06:25:59;;;;;;;23.45;10.68;;;5.70;68.90;;;;;;2306287;54;21026;-69
2021/11/26 06:28:28;;;;;;;25.10;12.27;;;5.70;68.90;;;;;;2309557;54;20932;-69
2021/11/26 06:30:54;;;;;;;27.85;13.32;;;5.70;68.80;;;;;;2545735;53;21493;-68
2021/11/26 06:33:20;;;;;;;29.85;14.30;;;5.70;68.80;;;;;;2300640;54;21932;-68
2021/11/26 06:35:48;;;;;;;31.48;14.13;;;5.70;68.80;;;;;;2545189;54;20978;-68
2021/11/26 06:38:14;;;;;;;26.55;13.45;;;5.70;68.80;;;;;;2518129;54;21032;-69
2021/11/26 06:40:41;;;;;;;27.10;13.05;;;5.70;68.80;;;;;;2537685;54;20947;-68
2021/11/26 06:43:08;;;;;;;23.73;11.70;;;5.70;68.80;;;;;;2310605;54;21019;-68
2021/11/26 06:45:34;;;;;;;25.85;12.40;;;5.70;68.70;;;;;;2306790;54;21410;-69
2021/11/26 06:48:00;;;;;;;26.40;12.80;;;5.70;68.70;;;;;;2312635;54;20975;-69
2021/11/26 06:50:28;;;;;;;26.67;13.05;;;5.70;68.70;;;;;;2302629;54;21011;-68
2021/11/26 06:52:54;;;;;;;23.52;12.30;;;5.70;68.60;;;;;;2542200;54;21026;-69
2021/11/26 06:55:23;;;;;;;31.08;14.55;;;5.70;68.60;;;;;;2535691;54;20967;-70
2021/11/26 06:57:49;;;;;;;26.48;13.82;;;5.70;68.50;;;;;;2317605;54;21007;-68
2021/11/26 07:00:17;;;;;;;30.55;13.23;;;5.70;68.60;;;;;;2312651;54;21049;-68
2021/11/26 07:02:44;;;;;;;30.85;14.27;;;5.70;68.50;;;;;;2304838;54;20968;-68
2021/11/26 07:05:11;;;;;;;29.33;13.35;;;5.70;68.60;;;;;;2314374;54;21012;-69
2021/11/26 07:07:37;;;;;;;27.83;13.52;;;5.70;68.70;;;;;;2545034;53;20947;-68
2021/11/26 07:10:33;;;;;;;30.67;13.48;;;5.70;68.70;;;;;;2313421;55;22250;-69
2021/11/26 07:13:02;;;;;;;26.52;12.50;;;5.70;68.50;;;;;;2317140;54;21013;-69
2021/11/26 07:15:28;;;;;;;28.08;13.20;;;5.70;68.70;;;;;;2318795;54;20964;-69
2021/11/26 07:17:56;;;;;;;26.77;13.35;;;5.70;68.70;;;;;;2562292;53;21029;-69
2021/11/26 07:20:22;;;;;;;29.42;14.68;;;5.70;68.70;;;;;;2322535;54;21036;-68
2021/11/26 07:22:50;;;;;;;29.85;13.60;;;5.70;68.70;;;;;;2534901;53;22162;-68
2021/11/26 07:25:16;;;;;;;29.87;14.57;;;5.70;68.70;;;;;;2551173;53;21912;-70
2021/11/26 07:27:42;;;;;;;31.12;15.10;;;5.70;68.70;;;;;;2320190;54;21100;-69
2021/11/26 07:30:10;;;;;;;25.70;13.07;;;5.70;68.70;;;;;;2520698;54;21756;-69
2021/11/26 07:32:37;;;;;;;29.08;14.00;;;5.70;68.70;;;;;;2332285;57;21367;-68
2021/11/26 07:35:04;;;;;;;27.73;14.00;;;5.70;68.70;;;;;;2340981;57;21061;-69
2021/11/26 07:37:31;;;;;;;30.45;13.82;;;5.70;68.70;;;;;;2339228;57;21133;-69
2021/11/26 07:39:57;;;;;;;31.00;14.82;;;5.70;68.70;;;;;;2340811;57;21061;-69
2021/11/26 07:42:24;;;;;;;26.73;13.43;;;5.70;68.70;;;;;;2339606;57;21072;-69
2021/11/26 07:44:50;;;;;;;32.30;14.63;;;5.70;68.70;;;;;;2341533;57;21112;-68
2021/11/26 07:47:22;;;;;;;29.87;14.25;;;5.70;68.70;;;;;;2341240;57;21080;-69
2021/11/26 07:49:52;;;;;;;28.40;13.55;;;5.70;68.70;;;;;;2341562;57;21163;-69
2021/11/26 07:52:20;;;;;;;32.42;14.65;;;5.70;68.70;;;;;;2340659;57;21068;-70
2021/11/26 07:54:48;;;;;;;28.55;13.90;;;5.80;68.80;;;;;;2340918;57;21147;-68
2021/11/26 07:57:15;;;;;;;28.42;13.02;;;5.70;68.70;;;;;;2340834;57;21167;-69
2021/11/26 07:59:42;;;;;;;31.70;13.73;;;5.70;68.70;;;;;;2341804;57;21045;-69
2021/11/26 08:02:08;;;;;;;32.03;14.00;;;5.80;68.80;;;;;;2341781;57;21049;-69
2021/11/26 08:04:35;;;;;;;29.10;14.77;;;5.80;68.80;;;;;;2587629;53;21057;-69
2021/11/26 08:07:01;;;;;;;28.67;14.52;;;5.80;68.80;;;;;;2342027;57;21116;-69
2021/11/26 08:10:04;;;;;;;28.40;14.43;;;5.80;68.70;;;;;;2341350;57;21056;-70
2021/11/26 08:12:30;;;;;;;29.92;14.43;;;5.80;68.70;;;;;;2341559;57;21071;-68
2021/11/26 08:14:57;;;;;;;30.52;14.68;;;5.80;68.60;;;;;;2341539;57;21072;-68
2021/11/26 08:17:24;;;;;;;30.37;14.55;;;5.80;68.70;;;;;;2588176;53;21061;-68
2021/11/26 08:19:51;;;;;;;28.48;12.75;;;5.80;68.80;;;;;;2342188;57;21146;-68
2021/11/26 08:22:26;;;;;;;29.05;13.88;;;5.80;68.80;;;;;;2341732;57;21116;-68
2021/11/26 08:24:53;;;;;;;31.58;15.57;;;5.80;68.80;;;;;;2341142;57;21057;-69
2021/11/26 08:27:22;;;;;;;30.58;15.65;;;5.80;68.70;;;;;;2341484;57;21125;-69
2021/11/26 08:29:48;;;;;;;31.98;15.77;;;5.80;68.70;;;;;;2341641;57;21048;-69
2021/11/26 08:32:15;;;;;;;29.83;14.45;;;5.80;68.60;;;;;;2341620;57;21183;-69
2021/11/26 08:34:53;;;;;;;34.45;15.98;;;5.80;68.70;;;;;;2576097;53;21628;-68
2021/11/26 08:37:20;;;;;;;33.75;16.60;;;5.80;68.60;;;;;;2320102;54;21961;-70
2021/11/26 08:39:48;;;;;;;30.62;14.02;;;5.80;68.70;;;;;;2325977;54;20978;-69
2021/11/26 08:45:53;;;;;;;36.60;16.30;;;5.80;68.60;;;;;;2589413;53;20977;-69
2021/11/26 08:48:20;;;;;;;32.28;15.73;;;5.80;68.70;;;;;;2341991;57;21084;-69
2021/11/26 08:50:49;;;;;;;33.38;15.13;;;5.80;68.80;;;;;;2342190;57;21656;-69
2021/11/26 08:53:15;;;;;;;36.38;16.42;;;5.80;68.90;;;;;;2341344;57;21085;-68
2021/11/26 08:55:52;;;;;;;36.53;16.50;;;5.90;69.00;;;;;;2589069;53;21139;-69
2021/11/26 08:58:19;;;;;;;34.00;17.85;;;5.80;68.90;;;;;;2341602;57;21108;-70
2021/11/26 09:00:45;;;;;;;33.10;16.10;;;5.80;68.90;;;;;;2342142;57;21061;-69
2021/11/26 09:03:12;;;;;;;35.38;17.90;;;5.80;69.00;;;;;;2545164;53;21062;-69
2021/11/26 09:05:38;;;;;;;41.70;20.42;;;5.80;69.00;;;;;;2308723;54;20962;-69
2021/11/26 09:08:14;;;;;;;39.72;19.33;;;5.80;69.00;;;;;;2341791;54;20915;-68
2021/11/26 09:10:41;;;;;;;38.50;18.37;;;5.90;69.00;;;;;;2583784;53;21001;-69
2021/11/26 09:13:08;;;;;;;31.37;16.10;;;5.80;69.00;;;;;;2323006;54;21384;-68
2021/11/26 09:15:40;;;;;;;32.63;15.38;;;5.90;69.10;;;;;;2579975;53;21088;-69
2021/11/26 09:18:45;;;;;;;33.28;15.82;;;5.90;69.10;;;;;;2569110;53;20984;-68
2021/11/26 09:21:11;;;;;;;28.05;14.35;;;5.90;69.00;;;;;;2306426;54;20974;-68
2021/11/26 09:23:38;;;;;;;32.53;14.55;;;5.90;69.10;;;;;;2544251;53;21010;-69
2021/11/26 09:26:07;;;;;;;32.25;14.07;;;5.90;69.20;;;;;;2326923;54;20983;-69
2021/11/26 09:28:33;;;;;;;35.45;16.77;;;5.90;69.20;;;;;;2557017;53;20988;-69
2021/11/26 09:31:00;;;;;;;35.53;16.95;;;5.90;69.10;;;;;;2549288;53;21098;-68
2021/11/26 09:33:38;;;;;;;36.17;16.77;;;5.90;69.10;;;;;;2321491;54;21038;-68
2021/11/26 09:36:08;;;;;;;37.40;17.30;;;5.90;68.90;;;;;;2322805;54;20974;-69
2021/11/26 09:38:34;;;;;;;32.78;15.65;;;5.90;69.10;;;;;;2332227;54;21604;-68
2021/11/26 09:41:01;;;;;;;37.40;16.90;;;6.00;69.40;;;;;;2339031;54;21032;-69
2021/11/26 09:43:34;;;;;;;38.33;18.83;;;6.00;70.10;;;;;;2318690;54;21105;-69
2021/11/26 09:46:03;;;;;;;41.33;18.95;;;6.00;69.40;;;;;;2340192;54;21792;-69
2021/11/26 09:48:30;;;;;;;43.50;20.88;;;6.00;69.40;;;;;;2327279;54;20964;-70
2021/11/26 09:50:57;;;;;;;35.97;17.15;;;6.00;69.50;;;;;;2550575;53;20996;-68
2021/11/26 09:53:26;;;;;;;38.65;18.70;;;6.10;69.60;;;;;;2554775;53;21778;-70
2021/11/26 09:55:54;;;;;;;36.95;17.25;;;6.10;69.60;;;;;;2316340;55;21967;-68
2021/11/26 09:58:21;;;;;;;36.35;17.33;;;6.10;69.60;;;;;;2300962;55;21048;-68
2021/11/26 10:00:53;;;;;;;38.80;17.25;;;6.10;69.60;;;;;;2322016;54;20995;-68
2021/11/26 10:03:21;;;;;;;36.17;16.60;;;6.20;69.60;;;;;;2335827;54;20921;-68
2021/11/26 10:05:48;;;;;;;38.72;18.15;;;6.20;69.70;;;;;;2318307;54;21001;-69
2021/11/26 10:11:49;;;;;;;34.42;16.05;;;6.20;69.50;;;;;;2588992;53;20938;-69
2021/11/26 10:14:20;;;;;;;39.10;19.20;;;6.30;69.80;;;;;;2548835;54;20949;-70
2021/11/26 10:16:55;;;;;;;42.80;19.30;;;6.40;69.70;;;;;;2340159;54;21494;-68
2021/11/26 10:19:38;;;;;;;39.17;18.67;;;6.40;69.50;;;;;;2307913;54;21056;-69
2021/11/26 10:22:24;;;;;;;33.85;16.50;;;6.40;69.00;;;;;;2590226;53;21049;-70
2021/11/26 10:25:18;;;;;;;34.72;17.35;;;6.40;69.00;;;;;;2589609;53;21109;-68
2021/11/26 10:28:47;;;;;;;37.10;16.30;;;6.40;68.90;;;;;;2323373;54;21024;-70
2021/11/26 10:31:22;;;;;;;36.90;16.73;;;6.50;68.60;;;;;;2334716;54;20929;-69
2021/11/26 10:34:28;;;;;;;33.90;15.35;;;6.50;69.00;;;;;;2318780;54;21518;-68
2021/11/26 10:36:57;;;;;;;33.08;15.70;;;6.50;68.90;;;;;;2341605;54;21011;-68
2021/11/26 10:39:23;;;;;;;33.42;15.65;;;6.50;69.30;;;;;;2302549;54;21058;-68
2021/11/26 10:41:57;;;;;;;34.42;16.35;;;6.50;69.30;;;;;;2339315;54;20937;-68
2021/11/26 10:48:21;;;;;;;38.75;19.42;;;6.60;69.20;;;;;;2341442;54;20995;-69
2021/11/26 10:51:08;;;;;;;37.88;18.02;;;6.60;69.00;;;;;;2341797;54;21074;-69
2021/11/26 10:59:04;;;;;;;30.45;15.48;;;6.70;69.00;;;;;;2311227;54;20940;-69
2021/11/26 11:01:44;;;;;;;30.05;14.68;;;6.70;69.00;;;;;;2555930;53;21030;-69
2021/11/26 11:04:17;;;;;;;30.48;15.43;;;6.70;68.90;;;;;;2316664;54;20965;-69
2021/11/26 11:06:43;;;;;;;32.75;16.05;;;6.80;69.30;;;;;;2345799;54;21000;-69
2021/11/26 11:09:12;;;;;;;32.42;15.98;;;6.80;69.30;;;;;;2327493;54;21029;-68
2021/11/26 11:11:50;;;;;;;34.00;16.73;;;6.80;69.20;;;;;;2313375;55;21004;-68
2021/11/26 11:14:18;;;;;;;34.30;16.45;;;6.80;69.10;;;;;;2332505;54;21008;-69
2021/11/26 11:16:46;;;;;;;33.22;15.85;;;6.90;69.40;;;;;;2552919;53;21005;-69
2021/11/26 11:19:12;;;;;;;36.40;17.77;;;6.90;69.50;;;;;;2330448;54;21520;-70
2021/11/26 11:21:39;;;;;;;34.83;18.30;;;7.00;69.60;;;;;;2314232;54;20958;-69
2021/11/26 11:24:05;;;;;;;38.35;17.77;;;7.00;69.30;;;;;;2560404;53;21001;-68
2021/11/26 11:26:32;;;;;;;34.15;16.58;;;7.00;69.30;;;;;;2341379;54;20956;-69
2021/11/26 11:28:58;;;;;;;35.25;17.77;;;7.10;69.40;;;;;;2588153;53;21686;-69
2021/11/26 11:31:24;;;;;;;35.40;17.23;;;7.10;69.20;;;;;;2323208;54;21467;-69
2021/11/26 11:33:51;;;;;;;30.35;15.57;;;7.10;69.20;;;;;;2318023;54;21075;-69
2021/11/26 11:36:54;;;;;;;34.38;16.30;;;7.20;69.50;;;;;;2327296;54;20966;-68
2021/11/26 11:39:21;;;;;;;31.58;15.52;;;7.20;69.20;;;;;;2322387;54;21531;-69
2021/11/26 11:41:57;;;;;;;28.98;15.15;;;7.30;69.60;;;;;;2329062;54;21051;-69
2021/11/26 11:44:34;;;;;;;27.00;13.50;;;7.30;69.60;;;;;;2329226;53;2263209;-70
2021/11/26 11:47:24;;;;;;;29.65;15.02;;;7.40;69.50;;;;;;2319933;54;20932;-69
2021/11/26 11:49:50;;;;;;;31.65;15.00;;;7.50;69.40;;;;;;2331590;54;21608;-69
2021/11/26 11:52:16;;;;;;;26.87;13.00;;;7.50;69.80;;;;;;2563134;53;20936;-69
2021/11/26 11:54:52;;;;;;;27.52;13.52;;;7.60;70.00;;;;;;2337451;54;21061;-69
2021/11/26 11:57:26;;;;;;;29.65;14.82;;;7.60;69.90;;;;;;2318757;54;20999;-68
2021/11/26 12:00:03;;;;;;;25.05;12.73;;;7.70;69.70;;;;;;2330232;54;21138;-68
2021/11/26 12:02:29;;;;;;;28.10;14.02;;;7.80;69.90;;;;;;2315594;54;20961;-70
2021/11/26 12:04:56;;;;;;;26.20;13.07;;;7.80;69.80;;;;;;2318564;54;21512;-69
2021/11/26 12:07:30;;;;;;;25.98;12.45;;;7.80;69.50;;;;;;2308604;55;21010;-68
2021/11/26 12:10:13;;;;;;;24.10;12.02;;;7.90;69.40;;;;;;2318481;54;21028;-70
2021/11/26 12:12:53;;;;;;;21.90;10.50;;;8.00;69.10;;;;;;2322669;54;21051;-69
2021/11/26 12:15:32;;;;;;;20.90;10.85;;;8.00;69.00;;;;;;2295592;55;21745;-69
2021/11/26 12:18:16;;;;;;;21.37;11.63;;;8.00;69.10;;;;;;2555586;54;21007;-69
2021/11/26 12:20:47;;;;;;;22.98;11.70;;;8.10;68.50;;;;;;2555004;54;21983;-69
2021/11/26 12:23:25;;;;;;;19.52;9.77;;;8.10;69.40;;;;;;2314208;54;20943;-69
2021/11/26 12:26:17;;;;;;;19.55;10.07;;;8.10;68.70;;;;;;2294868;54;20947;-69
2021/11/26 12:28:57;;;;;;;20.80;10.55;;;8.10;68.50;;;;;;2318314;54;20967;-70
2021/11/26 12:31:33;;;;;;;22.90;11.70;;;8.10;68.60;;;;;;2523293;54;20999;-69
2021/11/26 12:34:07;;;;;;;21.40;10.77;;;8.10;68.10;;;;;;2323423;54;21467;-69
2021/11/26 12:37:20;;;;;;;20.88;10.48;;;8.10;68.20;;;;;;2325686;54;21017;-69
2021/11/26 12:39:46;;;;;;;21.42;10.15;;;8.10;68.50;;;;;;2332215;54;20994;-68
2021/11/26 12:42:15;;;;;;;20.83;10.68;;;8.10;68.50;;;;;;2319145;54;20931;-69
2021/11/26 12:44:41;;;;;;;20.58;10.23;;;8.10;68.40;;;;;;2528834;54;20978;-69
2021/11/26 12:47:12;;;;;;;20.90;10.43;;;8.10;68.50;;;;;;2542520;53;20972;-68
2021/11/26 12:52:47;;;;;;;19.67;10.43;;;8.10;68.50;;;;;;2325156;54;21037;-69
2021/11/26 12:55:16;;;;;;;19.48;10.50;;;8.20;68.50;;;;;;2573402;53;21813;-69
2021/11/26 12:57:50;;;;;;;20.15;10.52;;;8.20;68.40;;;;;;2317528;54;20917;-69
2021/11/26 13:00:16;;;;;;;19.70;9.93;;;8.20;68.20;;;;;;2561246;53;20934;-69
2021/11/26 13:02:43;;;;;;;22.65;11.32;;;8.20;68.30;;;;;;2328661;54;20952;-69
2021/11/26 13:05:13;;;;;;;20.12;10.23;;;8.20;68.20;;;;;;2317679;54;21016;-68
2021/11/26 13:07:41;;;;;;;19.80;9.98;;;8.20;68.20;;;;;;2552589;53;21029;-70
2021/11/26 13:13:37;;;;;;;21.92;10.25;;;8.20;67.90;;;;;;2589135;53;20941;-69
2021/11/26 13:16:13;;;;;;;25.00;11.20;;;8.20;68.40;;;;;;2555488;53;20964;-69
2021/11/26 13:18:46;;;;;;;29.80;13.88;;;8.30;68.20;;;;;;2588620;53;20981;-70
2021/11/26 13:21:13;;;;;;;23.50;11.85;;;8.20;68.00;;;;;;2563483;53;21051;-68
2021/11/26 13:23:42;;;;;;;23.60;11.63;;;8.20;67.90;;;;;;2573811;53;21011;-70
2021/11/26 13:26:12;;;;;;;24.35;12.18;;;8.20;67.80;;;;;;2558045;53;21833;-70
2021/11/26 13:28:41;;;;;;;27.23;13.15;;;8.20;67.90;;;;;;2303017;55;20964;-69